Terminal Aerodrome Forecast
Issued by NWS

Home | Current Version | Previous Version | Text Only | Print | Product List | Glossary On
Versions: 1 2 3 4 5 6 7 8 9 10 11 12 13 14 15
000
FTAK31 PAJN 250500
TAFASI
TAF
PASI 250528Z 2506/2606 19010KT P6SM VCSH FEW025 BKN040 OVC050
      TEMPO 2506/2510 19010G20KT -SHRA FEW013 BKN030 OVC045
     FM251000 14004KT P6SM -SHRA FEW015 BKN040 OVC060
     FM251400 13010G18KT P6SM -RA FEW020 OVC035
     FM252100 14012KT 5SM -RA BR SCT009 BKN030 OVC050=

USA.gov is the U.S. government's official web portal to all federal, state and local government web resources and services.